Time;durP1;ratioP1;P1;durP2;ratioP2;P2;SDS_P1;SDS_P2;PMS_P1;PMS_P2;Temp;Humidity;BMP_temperature;BMP_pressure;BME280_temperature;BME280_humidity;BME280_pressure;Samples;Min_cycle;Max_cycle;Signal;HPM_P1;HPM_P2
2021/03/08 00:00:30;;;;;;;188.25;76.95;;;;;;;-1.10;70.73;98105.27;1780743;79;21255;-71
2021/03/08 00:02:59;;;;;;;196.98;84.55;;;;;;;-1.14;70.85;98109.33;1780728;80;21047;-71
2021/03/08 00:05:25;;;;;;;183.30;78.25;;;;;;;-1.09;70.83;98103.42;1780758;79;21122;-71
2021/03/08 00:07:51;;;;;;;222.20;90.75;;;;;;;-1.04;70.75;98105.75;1756477;80;21039;-71
2021/03/08 00:10:19;;;;;;;223.35;89.80;;;;;;;-1.06;70.64;98099.83;1780806;79;21024;-71
2021/03/08 00:12:47;;;;;;;191.43;79.73;;;;;;;-1.02;70.44;98107.72;1781028;80;22071;-71
2021/03/08 00:15:14;;;;;;;202.55;88.87;;;;;;;-0.98;70.62;98104.14;1780759;79;21134;-71
2021/03/08 00:17:40;;;;;;;153.75;63.60;;;;;;;-1.01;70.58;98098.72;1780734;80;21075;-71
2021/03/08 00:20:09;;;;;;;191.92;92.22;;;;;;;-0.92;70.42;98098.83;1780758;79;21118;-71
2021/03/08 00:22:36;;;;;;;187.15;82.47;;;;;;;-0.98;70.60;98096.16;1757123;80;21070;-71
2021/03/08 00:25:09;;;;;;;194.65;88.10;;;;;;;-0.97;70.18;98097.78;1762260;81;22037;-71
2021/03/08 00:27:36;;;;;;;186.35;86.72;;;;;;;-0.93;70.30;98094.53;1778440;80;21126;-71
2021/03/08 00:30:04;;;;;;;184.30;83.30;;;;;;;-0.94;70.12;98097.37;1780741;79;21142;-71
2021/03/08 00:32:31;;;;;;;191.62;79.72;;;;;;;-0.94;70.59;98093.38;1780902;80;21105;-71
2021/03/08 00:34:58;;;;;;;193.37;83.52;;;;;;;-0.97;71.95;98087.97;1780830;79;21028;-71
2021/03/08 00:37:30;;;;;;;178.72;78.60;;;;;;;-0.95;71.54;98091.23;1780864;80;21186;-70
2021/03/08 00:39:53;;;;;;;162.43;67.97;;;;;;;-0.89;70.71;98089.61;1780215;79;21539;-71
2021/03/08 00:42:19;;;;;;;176.30;77.87;;;;;;;-0.84;70.61;98080.51;1780779;80;21487;-71
2021/03/08 00:44:46;;;;;;;188.68;83.97;;;;;;;-0.89;70.86;98071.80;1780718;79;21495;-71
2021/03/08 00:47:12;;;;;;;182.53;84.35;;;;;;;-0.89;70.55;98072.31;1780733;80;21067;-71
2021/03/08 00:49:39;;;;;;;188.70;82.78;;;;;;;-0.87;70.74;98072.41;1780685;79;21195;-71
2021/03/08 00:52:05;;;;;;;177.95;82.33;;;;;;;-0.81;70.44;98070.77;1780717;80;21511;-72
2021/03/08 00:54:31;;;;;;;185.78;87.25;;;;;;;-0.78;70.36;98073.02;1780752;79;21067;-71
2021/03/08 00:56:58;;;;;;;198.68;84.97;;;;;;;-0.78;70.77;98065.55;1756520;80;21134;-71
2021/03/08 00:59:24;;;;;;;190.82;82.75;;;;;;;-0.72;70.48;98066.88;1780792;79;21059;-71
2021/03/08 01:01:50;;;;;;;182.20;75.03;;;;;;;-0.66;71.75;98066.58;1780827;80;21148;-71
2021/03/08 01:04:16;;;;;;;184.48;81.97;;;;;;;-0.71;71.00;98063.70;1780687;79;21067;-71
2021/03/08 01:06:42;;;;;;;174.40;79.15;;;;;;;-0.79;70.39;98059.41;1780731;80;21139;-71
2021/03/08 01:09:08;;;;;;;183.95;86.63;;;;;;;-0.78;70.40;98058.37;1780632;79;21071;-71
2021/03/08 01:11:35;;;;;;;175.38;79.00;;;;;;;-0.73;70.43;98049.28;1780863;80;21011;-71
2021/03/08 01:14:01;;;;;;;181.72;79.35;;;;;;;-0.69;70.47;98050.48;1780658;79;21180;-71
2021/03/08 01:16:27;;;;;;;166.57;73.80;;;;;;;-0.65;70.17;98048.25;1780652;80;21159;-71
2021/03/08 01:18:53;;;;;;;170.17;76.80;;;;;;;-0.68;70.09;98042.84;1780678;79;21067;-71
2021/03/08 01:21:20;;;;;;;141.50;63.02;;;;;;;-0.66;70.22;98049.27;1780699;80;21114;-71
2021/03/08 01:23:46;;;;;;;157.67;69.95;;;;;;;-0.66;69.85;98045.28;1780702;79;21102;-71
2021/03/08 01:26:12;;;;;;;160.65;70.78;;;;;;;-0.73;70.06;98044.47;1780777;80;21402;-71
2021/03/08 01:28:38;;;;;;;155.80;67.05;;;;;;;-0.72;70.20;98043.44;1781914;79;21134;-71
2021/03/08 01:31:05;;;;;;;158.07;64.97;;;;;;;-0.69;70.16;98043.02;1785173;80;21146;-71
2021/03/08 01:33:31;;;;;;;148.53;64.15;;;;;;;-0.65;70.39;98045.07;1785048;79;21162;-71
2021/03/08 01:35:57;;;;;;;140.03;65.80;;;;;;;-0.59;70.14;98051.42;1785165;80;21094;-71
2021/03/08 01:38:23;;;;;;;156.37;70.47;;;;;;;-0.60;69.91;98048.42;1785202;80;21160;-71
2021/03/08 01:40:49;;;;;;;152.72;68.60;;;;;;;-0.64;70.02;98050.70;1785035;79;21118;-71
2021/03/08 01:43:16;;;;;;;156.95;74.00;;;;;;;-0.67;70.02;98048.97;1785114;80;21288;-71
2021/03/08 01:45:42;;;;;;;148.62;67.67;;;;;;;-0.78;70.18;98049.06;1785090;79;21102;-71
2021/03/08 01:48:09;;;;;;;155.15;68.75;;;;;;;-0.76;70.23;98051.03;1785075;80;21114;-71
2021/03/08 01:50:40;;;;;;;156.67;70.40;;;;;;;-0.80;70.17;98043.66;1785117;79;22326;-71
2021/03/08 01:53:08;;;;;;;162.15;72.40;;;;;;;-0.81;70.51;98043.35;1784040;80;21138;-72
2021/03/08 01:55:34;;;;;;;165.37;73.10;;;;;;;-0.83;71.16;98043.56;1785330;79;21126;-72
2021/03/08 01:58:01;;;;;;;144.32;63.63;;;;;;;-0.83;71.16;98043.56;1756756;80;21928;-72
2021/03/08 02:00:28;;;;;;;158.97;68.42;;;;;;;-0.77;70.90;98043.23;1785139;79;21463;-72
2021/03/08 02:02:54;;;;;;;151.35;67.10;;;;;;;-0.83;70.93;98048.06;1785173;80;21262;-72
2021/03/08 02:05:24;;;;;;;172.82;74.82;;;;;;;-0.80;70.90;98039.66;1784995;79;21095;-72
2021/03/08 02:07:51;;;;;;;168.05;78.50;;;;;;;-0.84;70.86;98043.77;1785098;80;21107;-72
2021/03/08 02:10:17;;;;;;;170.47;78.75;;;;;;;-0.81;70.94;98046.83;1785142;79;21487;-72
2021/03/08 02:12:52;;;;;;;165.45;78.17;;;;;;;-0.79;70.95;98038.12;1785311;80;21479;-72
2021/03/08 02:15:51;;;;;;;147.47;62.17;;;;;;;-0.75;71.05;98043.35;1785294;79;21302;-72
2021/03/08 02:18:36;;;;;;;190.18;86.57;;;;;;;-0.76;70.86;98029.74;1785171;80;21111;-71
2021/03/08 02:21:43;;;;;;;179.12;79.72;;;;;;;-0.87;71.35;98031.17;1785304;80;21102;-71
2021/03/08 02:24:42;;;;;;;154.07;72.55;;;;;;;-0.93;71.26;98033.34;1785240;79;21110;-71
2021/03/08 02:27:14;;;;;;;137.22;66.70;;;;;;;-0.92;71.16;98031.50;1785321;80;21114;-72
2021/03/08 02:30:20;;;;;;;75.32;36.15;;;;;;;-0.88;71.10;98022.88;1781436;79;21264;-72
2021/03/08 02:32:47;;;;;;;73.57;34.43;;;;;;;-0.75;71.16;98017.25;1780113;80;21123;-71
2021/03/08 02:35:22;;;;;;;69.07;35.10;;;;;;;-0.57;70.96;98024.07;1756463;80;21126;-71
2021/03/08 02:37:57;;;;;;;77.05;38.20;;;;;;;-0.47;70.78;98020.45;1780828;80;21062;-72
2021/03/08 02:40:26;;;;;;;98.97;48.05;;;;;;;-0.36;70.58;98021.65;1780823;79;21130;-72
2021/03/08 02:42:55;;;;;;;91.05;44.80;;;;;;;-0.28;70.46;98014.77;1780857;80;22078;-72
2021/03/08 02:45:22;;;;;;;;;;;;;;;-0.22;70.25;98011.78;1783322;79;21424;-72
2021/03/08 02:47:48;;;;;;;110.72;51.00;;;;;;;-0.19;70.23;98010.02;1780906;80;20526;-72
2021/03/08 02:50:15;;;;;;;109.42;47.60;;;;;;;-0.16;69.98;98010.43;1780832;79;21094;-72
2021/03/08 02:52:52;;;;;;;119.90;51.37;;;;;;;-0.15;69.87;98009.39;1780936;80;21086;-72
2021/03/08 02:55:18;;;;;;;184.13;72.92;;;;;;;-0.15;69.79;98010.73;1780770;79;21192;-72
2021/03/08 02:57:44;;;;;;;150.03;70.90;;;;;;;-0.19;69.71;98010.83;1756645;80;21547;-72
2021/03/08 03:00:12;;;;;;;160.97;69.90;;;;;;;-0.24;69.93;98005.34;1780756;79;21099;-72
2021/03/08 03:02:39;;;;;;;138.77;64.05;;;;;;;-0.24;70.02;98009.33;1762237;81;21109;-72
2021/03/08 03:05:08;;;;;;;125.20;58.00;;;;;;;-0.20;70.05;98004.39;1780784;79;21079;-72
2021/03/08 03:07:35;;;;;;;124.70;59.33;;;;;;;-0.16;70.01;98011.77;1762229;81;21191;-72
2021/03/08 03:10:04;;;;;;;121.47;55.43;;;;;;;-0.12;69.83;98007.62;1780671;79;21018;-72
2021/03/08 03:12:32;;;;;;;124.80;56.05;;;;;;;-0.11;69.72;98005.78;1762429;81;21501;-71
2021/03/08 03:14:59;;;;;;;116.97;57.43;;;;;;;-0.13;69.73;98011.33;1781070;79;21051;-71
2021/03/08 03:17:25;;;;;;;119.25;51.88;;;;;;;-0.14;69.81;98011.03;1762258;81;21120;-71
2021/03/08 03:19:51;;;;;;;106.87;50.20;;;;;;;-0.09;69.82;98015.19;1780712;79;21472;-71
2021/03/08 03:22:22;;;;;;;96.40;48.73;;;;;;;-0.06;69.86;98013.45;1762231;81;21108;-71
2021/03/08 03:24:50;;;;;;;97.17;47.80;;;;;;;-0.02;69.79;98013.32;1756511;80;21417;-72
2021/03/08 03:27:16;;;;;;;102.62;46.00;;;;;;;0.04;69.85;98009.52;1762318;81;21129;-72
2021/03/08 03:29:42;;;;;;;103.17;47.00;;;;;;;0.05;70.07;98013.30;1764498;81;21143;-72
2021/03/08 03:32:08;;;;;;;105.35;50.63;;;;;;;0.05;69.82;98015.14;1767461;81;21563;-72
2021/03/08 03:34:34;;;;;;;100.05;46.73;;;;;;;0.07;69.78;98010.41;1767246;81;21128;-72
2021/03/08 03:37:01;;;;;;;91.78;45.40;;;;;;;0.09;69.81;98006.53;1788858;80;21133;-72
2021/03/08 03:39:27;;;;;;;76.70;37.38;;;;;;;0.13;69.81;98007.72;1788840;78;21099;-72
2021/03/08 03:41:54;;;;;;;78.65;37.33;;;;;;;0.15;69.79;98005.66;1788872;80;21134;-72
2021/03/08 03:44:20;;;;;;;76.95;36.90;;;;;;;0.20;69.68;98010.36;1788749;78;21260;-72
2021/03/08 03:46:46;;;;;;;75.52;38.20;;;;;;;0.23;69.59;98017.40;1788773;80;21143;-72
2021/03/08 03:49:16;;;;;;;72.30;35.00;;;;;;;0.26;69.53;98018.84;1788846;78;21527;-72
2021/03/08 03:51:43;;;;;;;70.70;37.65;;;;;;;0.27;69.56;98013.81;1788821;80;21145;-71
2021/03/08 03:54:09;;;;;;;69.97;35.92;;;;;;;0.29;69.42;98010.41;1788788;78;21011;-71
2021/03/08 03:56:36;;;;;;;66.50;34.27;;;;;;;0.33;69.48;98013.45;1788816;80;21190;-71
2021/03/08 03:59:24;;;;;;;82.27;42.90;;;;;;;0.36;69.31;98015.70;1788687;78;21241;-71
2021/03/08 04:01:55;;;;;;;62.80;29.72;;;;;;;0.36;69.18;98012.52;1789110;80;21491;-71
2021/03/08 04:04:29;;;;;;;52.70;27.37;;;;;;;0.39;69.04;98007.27;1788780;78;21019;-72
2021/03/08 04:06:55;;;;;;;51.37;25.55;;;;;;;0.38;68.97;98006.45;1788640;80;21518;-71
2021/03/08 04:09:22;;;;;;;49.23;26.30;;;;;;;0.38;68.90;98006.45;1788787;78;22124;-71
2021/03/08 04:11:52;;;;;;;54.20;27.93;;;;;;;0.39;68.94;98009.42;1788807;80;21078;-71
2021/03/08 04:14:21;;;;;;;53.28;25.50;;;;;;;0.41;68.98;98007.34;1788823;78;21047;-71
2021/03/08 04:16:49;;;;;;;52.10;25.32;;;;;;;0.39;68.97;98002.75;1788935;80;26496;-71
2021/03/08 04:19:16;;;;;;;51.05;27.60;;;;;;;0.36;68.90;98006.38;1788992;78;26509;-71
2021/03/08 04:21:42;;;;;;;50.92;27.80;;;;;;;0.27;68.82;98000.48;1788884;80;21191;-71
2021/03/08 04:24:10;;;;;;;49.95;25.62;;;;;;;0.23;69.05;97997.92;1788656;78;21102;-71
2021/03/08 04:26:39;;;;;;;41.92;22.65;;;;;;;0.25;69.08;97995.34;1788789;80;21110;-71
2021/03/08 04:29:06;;;;;;;52.67;28.32;;;;;;;0.26;69.10;97994.33;1787799;78;21062;-71
2021/03/08 04:31:33;;;;;;;46.77;25.08;;;;;;;0.22;69.16;97990.97;1756578;80;21102;-71
2021/03/08 04:34:02;;;;;;;46.00;25.60;;;;;;;0.24;69.04;97996.37;1756361;80;21202;-71
2021/03/08 04:36:28;;;;;;;38.02;24.35;;;;;;;0.26;68.99;97993.00;1779751;80;21112;-71
2021/03/08 04:38:54;;;;;;;57.03;31.37;;;;;;;0.28;68.99;97993.59;1780700;79;21063;-71
2021/03/08 04:41:21;;;;;;;65.70;34.33;;;;;;;0.32;68.87;97989.16;1762150;81;21123;-71
2021/03/08 04:43:47;;;;;;;71.28;36.50;;;;;;;0.33;68.87;97988.13;1780835;79;21122;-71
2021/03/08 04:46:13;;;;;;;62.03;29.60;;;;;;;0.34;68.87;97981.76;1762117;81;21206;-71
2021/03/08 04:48:40;;;;;;;58.83;31.30;;;;;;;0.34;68.73;97977.77;1780704;79;21511;-71
2021/03/08 04:51:06;;;;;;;62.20;31.15;;;;;;;0.34;68.66;97973.24;1762110;81;21112;-71
2021/03/08 04:53:33;;;;;;;49.20;25.52;;;;;;;0.31;68.79;97979.53;1780779;79;21134;-71
2021/03/08 04:55:59;;;;;;;59.90;29.85;;;;;;;0.34;68.64;97975.91;1711997;81;21017;-71
2021/03/08 04:58:25;;;;;;;58.73;29.70;;;;;;;0.28;68.68;97976.27;1780733;80;21194;-71
2021/03/08 05:00:54;;;;;;;59.70;30.62;;;;;;;0.27;68.74;97975.97;1762028;81;21077;-71
2021/03/08 05:03:20;;;;;;;51.95;26.10;;;;;;;0.25;68.72;97976.68;1732715;80;21122;-71
2021/03/08 05:05:46;;;;;;;47.73;24.50;;;;;;;0.26;68.52;97985.00;1762107;81;21120;-71
2021/03/08 05:08:14;;;;;;;37.63;20.88;;;;;;;0.23;68.80;97992.59;1780783;80;21130;-71
2021/03/08 05:10:40;;;;;;;40.05;23.73;;;;;;;0.23;68.71;98000.08;1762112;81;21279;-71
2021/03/08 05:13:08;;;;;;;44.80;22.98;;;;;;;0.26;68.59;97994.86;1780671;80;21523;-71
2021/03/08 05:15:37;;;;;;;39.23;22.58;;;;;;;0.27;68.54;97994.63;1736699;81;21076;-71
2021/03/08 05:18:04;;;;;;;28.17;16.48;;;;;;;0.27;68.54;97996.48;1762281;81;21084;-71
2021/03/08 05:20:31;;;;;;;41.58;23.00;;;;;;;0.27;68.54;97996.48;1780755;79;21463;-71
2021/03/08 05:23:01;;;;;;;38.15;22.13;;;;;;;0.30;68.51;97996.56;1762142;81;21194;-71
2021/03/08 05:25:27;;;;;;;;;;;;;;;0.30;68.48;97991.23;1751960;82;21070;-71
2021/03/08 05:27:53;;;;;;;39.65;22.40;;;;;;;0.31;68.45;97989.67;1780834;80;20253;-72
2021/03/08 05:30:21;;;;;;;42.10;22.82;;;;;;;0.30;68.30;97992.05;1764360;81;21072;-71
2021/03/08 05:32:54;;;;;;;42.10;21.90;;;;;;;0.27;68.24;97994.63;1788757;80;21070;-71
2021/03/08 05:35:22;;;;;;;53.35;22.82;;;;;;;0.28;68.28;97996.78;1788809;78;21412;-72
2021/03/08 05:37:48;;;;;;;35.70;20.95;;;;;;;0.31;68.47;98000.86;1788660;80;21062;-72
2021/03/08 05:40:29;;;;;;;44.93;20.82;;;;;;;0.35;68.46;98010.08;1788772;78;21534;-72
2021/03/08 05:43:02;;;;;;;62.75;23.70;;;;;;;0.40;68.41;98011.56;1788872;80;21114;-71
2021/03/08 05:45:33;;;;;;;42.03;22.58;;;;;;;0.43;68.37;98007.16;1788789;78;21399;-71
2021/03/08 05:48:41;;;;;;;43.30;23.90;;;;;;;0.45;68.39;98007.23;1788087;80;21199;-71
2021/03/08 05:51:25;;;;;;;48.25;24.85;;;;;;;0.50;68.44;98013.23;1788973;80;21051;-71
2021/03/08 05:54:15;;;;;;;44.08;22.45;;;;;;;0.55;68.46;98010.75;1782966;78;21170;-72
2021/03/08 05:56:59;;;;;;;41.85;22.82;;;;;;;0.56;68.18;98015.05;1783727;80;21035;-72
2021/03/08 05:59:56;;;;;;;48.15;23.75;;;;;;;0.53;68.28;98020.83;1788469;78;21491;-71
2021/03/08 06:02:48;;;;;;;38.33;21.90;;;;;;;0.56;68.46;98023.05;1789008;80;22003;-71
2021/03/08 06:06:07;;;;;;;41.08;22.02;;;;;;;0.59;68.49;98025.80;1788409;78;21118;-71
2021/03/08 06:08:53;;;;;;;47.70;25.40;;;;;;;0.64;68.38;98022.80;1788919;78;21157;-71
2021/03/08 06:11:19;;;;;;;54.50;30.62;;;;;;;0.65;68.40;98028.94;1788983;80;21034;-71
2021/03/08 06:13:58;;;;;;;45.78;26.73;;;;;;;0.66;68.39;98031.39;1788911;78;21110;-71
2021/03/08 06:16:36;;;;;;;50.60;26.90;;;;;;;0.68;68.45;98034.64;1788989;80;21182;-71
2021/03/08 06:19:05;;;;;;;46.53;25.45;;;;;;;0.70;68.28;98034.45;1788965;78;21142;-72
2021/03/08 06:21:32;;;;;;;;;;;;;;;0.63;68.50;98040.34;1791511;80;21062;-72
2021/03/08 06:23:58;;;;;;;48.02;26.97;;;;;;;0.60;68.67;98032.27;1788969;78;20487;-72
2021/03/08 06:26:24;;;;;;;48.42;25.72;;;;;;;0.64;68.48;98037.46;1788858;80;21087;-72
2021/03/08 06:28:50;;;;;;;52.33;28.23;;;;;;;0.65;68.49;98043.61;1788896;78;21202;-72
2021/03/08 06:31:16;;;;;;;54.53;26.97;;;;;;;0.65;68.68;98044.94;1782764;80;21071;-72
2021/03/08 06:33:43;;;;;;;47.13;27.22;;;;;;;0.70;68.60;98043.80;1780908;80;21170;-72
2021/03/08 06:36:11;;;;;;;52.90;29.15;;;;;;;0.76;68.60;98049.58;1780915;80;21043;-72
2021/03/08 06:38:37;;;;;;;52.93;28.40;;;;;;;0.80;68.57;98054.28;1737094;81;21077;-72
2021/03/08 06:41:03;;;;;;;58.08;29.98;;;;;;;0.83;68.56;98053.02;1780804;80;21384;-72
2021/03/08 06:43:29;;;;;;;54.93;28.38;;;;;;;0.87;68.66;98055.57;1762149;81;21132;-72
2021/03/08 06:45:55;;;;;;;52.60;27.48;;;;;;;0.89;68.67;98066.84;1756262;80;21106;-72
2021/03/08 06:48:22;;;;;;;61.18;29.55;;;;;;;0.90;68.64;98063.13;1762226;81;21571;-72
2021/03/08 06:51:10;;;;;;;51.92;28.30;;;;;;;0.89;68.64;98067.36;1780751;79;21000;-72
2021/03/08 06:53:36;;;;;;;51.73;28.05;;;;;;;0.82;68.80;98070.88;1762082;80;21509;-72
2021/03/08 06:56:18;;;;;;;61.37;30.55;;;;;;;0.82;68.73;98074.88;1762240;81;21536;-72
2021/03/08 06:58:47;;;;;;;236.92;112.37;;;;;;;0.71;69.48;98083.58;1762333;80;21076;-71
2021/03/08 07:01:31;;;;;;;114.40;57.40;;;;;;;0.53;71.87;98079.48;1762117;81;21520;-71
2021/03/08 07:03:59;;;;;;;325.80;126.58;;;;;;;0.52;72.30;98081.34;1762344;80;21033;-71
2021/03/08 07:06:25;;;;;;;243.48;120.92;;;;;;;0.48;71.05;98088.11;1736693;81;22078;-71
2021/03/08 07:08:51;;;;;;;66.10;34.60;;;;;;;0.39;72.87;98090.73;1762130;80;21213;-71
2021/03/08 07:11:22;;;;;;;53.25;25.60;;;;;;;0.42;71.11;98092.95;1762262;81;21032;-71
2021/03/08 07:13:51;;;;;;;55.30;27.25;;;;;;;0.41;73.50;98095.84;1762233;80;21260;-71
2021/03/08 07:16:17;;;;;;;44.05;23.12;;;;;;;0.36;73.39;98097.02;1762415;81;21038;-71
2021/03/08 07:18:43;;;;;;;46.95;27.32;;;;;;;0.35;73.14;98096.71;1762321;80;21259;-72
2021/03/08 07:21:19;;;;;;;57.00;29.18;;;;;;;0.27;74.98;98108.43;1762209;81;21116;-71
2021/03/08 07:23:47;;;;;;;70.97;36.03;;;;;;;0.25;75.00;98110.47;1762212;80;21101;-71
2021/03/08 07:26:17;;;;;;;61.80;34.65;;;;;;;0.19;74.68;98112.66;1762437;81;27143;-71
2021/03/08 07:28:43;;;;;;;63.00;36.73;;;;;;;0.16;75.46;98113.06;1761889;80;21179;-71
2021/03/08 07:31:10;;;;;;;60.55;32.03;;;;;;;0.09;75.55;98112.30;1764961;81;21324;-71
2021/03/08 07:33:37;;;;;;;65.50;41.63;;;;;;;0.05;75.56;98110.55;1767409;79;21138;-71
2021/03/08 07:36:13;;;;;;;85.47;50.65;;;;;;;-0.01;76.53;98114.05;1767457;81;21155;-71
2021/03/08 07:38:39;;;;;;;134.72;84.17;;;;;;;0.03;76.09;98125.13;1767362;79;21089;-71
2021/03/08 07:41:19;;;;;;;204.10;113.65;;;;;;;0.05;75.72;98128.39;1767456;81;21092;-71
2021/03/08 07:43:47;;;;;;;146.40;82.90;;;;;;;0.04;76.16;98122.23;1766060;79;22088;-72
2021/03/08 07:46:36;;;;;;;103.53;65.15;;;;;;;-0.01;77.20;98129.52;1767608;81;21104;-72
2021/03/08 07:49:04;;;;;;;;;;;;;;;0.01;77.07;98123.19;1769939;79;21179;-71
2021/03/08 07:51:31;;;;;;;94.35;55.98;;;;;;;0.04;77.08;98128.08;1767089;81;20215;-71
2021/03/08 07:54:05;;;;;;;68.67;37.85;;;;;;;0.07;76.40;98131.13;1767451;79;21393;-71
2021/03/08 07:56:32;;;;;;;71.20;37.30;;;;;;;-0.07;78.27;98130.89;1767330;81;21198;-72
2021/03/08 07:58:58;;;;;;;67.37;34.25;;;;;;;-0.08;78.75;98135.91;1767366;79;21421;-72
2021/03/08 08:01:24;;;;;;;65.00;39.98;;;;;;;-0.11;78.89;98135.80;1767322;81;21098;-72
2021/03/08 08:03:51;;;;;;;73.33;40.00;;;;;;;-0.13;79.58;98134.37;1767403;79;21201;-72
2021/03/08 08:06:23;;;;;;;62.45;34.67;;;;;;;-0.01;78.26;98138.02;1767332;81;21032;-72
2021/03/08 08:08:51;;;;;;;59.80;31.60;;;;;;;0.08;78.14;98136.77;1766311;79;21480;-71
2021/03/08 08:11:19;;;;;;;61.63;35.10;;;;;;;0.02;78.89;98142.14;1767428;81;21442;-71
2021/03/08 08:13:54;;;;;;;70.12;37.48;;;;;;;0.02;79.48;98142.14;1767425;79;21091;-71
2021/03/08 08:16:25;;;;;;;59.03;32.15;;;;;;;-0.02;79.58;98145.72;1766670;81;21409;-72
2021/03/08 08:18:56;;;;;;;53.75;29.80;;;;;;;0.02;79.39;98149.61;1767333;79;21179;-72
2021/03/08 08:21:22;;;;;;;69.92;32.88;;;;;;;-0.01;79.69;98152.16;1767166;81;21267;-71
2021/03/08 08:23:58;;;;;;;65.30;33.63;;;;;;;-0.09;80.32;98151.05;1767323;79;21723;-71
2021/03/08 08:26:24;;;;;;;65.95;31.07;;;;;;;0.01;79.51;98147.98;1742626;81;21084;-72
2021/03/08 08:28:51;;;;;;;66.95;35.90;;;;;;;0.09;78.68;98156.27;1767265;79;21221;-72
2021/03/08 08:31:17;;;;;;;61.28;31.15;;;;;;;0.05;80.00;98158.51;1767215;81;21088;-72
2021/03/08 08:33:44;;;;;;;61.40;31.35;;;;;;;0.01;80.38;98159.16;1767324;79;21198;-72
2021/03/08 08:36:14;;;;;;;64.85;30.75;;;;;;;0.06;79.65;98158.81;1767247;81;21092;-72
2021/03/08 08:38:42;;;;;;;74.25;35.25;;;;;;;-0.01;80.82;98156.16;1767425;79;21469;-72
2021/03/08 08:41:28;;;;;;;65.85;35.25;;;;;;;0.09;81.02;98157.59;1767422;81;21029;-72
2021/03/08 08:44:15;;;;;;;74.12;37.23;;;;;;;0.16;80.71;98163.70;1766444;79;21421;-71
2021/03/08 08:46:45;;;;;;;69.62;34.15;;;;;;;0.13;80.95;98168.94;1767304;81;21087;-71
2021/03/08 08:49:18;;;;;;;76.62;37.08;;;;;;;0.23;80.12;98169.31;1767165;79;21119;-72
2021/03/08 08:51:58;;;;;;;100.27;45.23;;;;;;;0.25;80.45;98169.92;1767369;81;21100;-71
2021/03/08 08:54:33;;;;;;;103.70;47.25;;;;;;;0.28;79.46;98170.03;1767258;79;21091;-72
2021/03/08 08:57:11;;;;;;;79.72;37.93;;;;;;;0.32;80.11;98177.91;1767300;81;21135;-72
2021/03/08 08:59:37;;;;;;;74.05;36.13;;;;;;;0.23;80.23;98177.83;1767445;79;21103;-72
2021/03/08 09:02:22;;;;;;;80.57;35.80;;;;;;;0.22;80.19;98181.53;1767319;81;21120;-72
2021/03/08 09:04:46;;;;;;;71.70;35.03;;;;;;;0.09;80.64;98176.25;1767344;80;21150;-72
2021/03/08 09:07:28;;;;;;;80.53;39.30;;;;;;;0.07;80.93;98168.44;1767277;81;21158;-74
2021/03/08 09:09:59;;;;;;;72.42;35.73;;;;;;;0.16;80.71;98173.84;1766870;79;21091;-70
2021/03/08 09:12:37;;;;;;;94.03;44.38;;;;;;;0.13;81.45;98180.12;1767251;81;21380;-71
2021/03/08 09:15:12;;;;;;;86.55;43.10;;;;;;;0.11;81.51;98175.52;1767361;79;21089;-71
2021/03/08 09:17:52;;;;;;;88.12;43.55;;;;;;;0.13;81.44;98174.27;1767343;81;21049;-71
2021/03/08 09:20:27;;;;;;;86.30;45.78;;;;;;;0.17;81.48;98175.52;1767392;79;21422;-71
2021/03/08 09:23:01;;;;;;;85.42;43.70;;;;;;;0.25;80.62;98176.58;1767473;81;21504;-71
2021/03/08 09:28:14;;;;;;;90.30;45.60;;;;;;;0.31;81.57;98188.78;1890224;76;22518;-70
2021/03/08 09:30:43;;;;;;;94.13;43.48;;;;;;;0.27;81.29;98187.06;1830331;77;21027;-70
2021/03/08 09:33:15;;;;;;;97.05;47.27;;;;;;;0.15;81.85;98194.05;1827487;78;22056;-71
2021/03/08 09:35:47;;;;;;;86.57;44.58;;;;;;;0.14;81.70;98198.56;1827259;77;21034;-71
2021/03/08 09:38:21;;;;;;;82.17;43.08;;;;;;;0.08;82.03;98192.72;1827380;78;21474;-71
2021/03/08 09:40:53;;;;;;;86.63;41.53;;;;;;;0.10;82.26;98204.02;1827363;77;21494;-71
2021/03/08 09:43:30;;;;;;;83.50;43.13;;;;;;;-0.06;83.02;98203.94;1827368;78;20944;-71
2021/03/08 09:46:12;;;;;;;87.65;41.05;;;;;;;-0.01;82.53;98207.30;1827329;78;21959;-72
2021/03/08 09:48:41;;;;;;;93.00;45.83;;;;;;;-0.04;83.16;98202.39;1827315;77;21518;-71
2021/03/08 09:51:14;;;;;;;91.82;44.25;;;;;;;-0.18;83.62;98210.08;1827450;78;21102;-71
2021/03/08 09:53:44;;;;;;;96.82;46.40;;;;;;;-0.09;83.30;98216.83;1821706;77;21118;-72
2021/03/08 09:56:14;;;;;;;99.35;49.42;;;;;;;0.12;82.59;98212.61;1826419;78;21089;-72
2021/03/08 09:58:41;;;;;;;94.05;48.00;;;;;;;0.27;82.07;98213.20;1827425;77;21190;-73
2021/03/08 10:01:17;;;;;;;82.60;37.10;;;;;;;0.25;82.07;98213.90;1827241;78;21002;-70
2021/03/08 10:03:44;;;;;;;78.55;39.20;;;;;;;0.25;81.26;98221.90;1827267;77;21054;-71
2021/03/08 10:06:28;;;;;;;76.75;37.45;;;;;;;0.23;81.53;98221.81;1827232;78;21134;-71
2021/03/08 10:08:56;;;;;;;85.28;41.42;;;;;;;0.22;81.16;98225.51;1827338;77;21028;-71
2021/03/08 10:11:29;;;;;;;76.70;40.03;;;;;;;0.34;80.48;98223.01;1822241;78;21290;-71
2021/03/08 10:13:56;;;;;;;84.60;39.48;;;;;;;0.40;80.47;98224.33;1827248;77;21041;-71
2021/03/08 10:16:25;;;;;;;87.88;44.25;;;;;;;0.55;80.12;98233.42;1827302;78;21173;-71
2021/03/08 10:18:51;;;;;;;125.33;72.37;;;;;;;0.69;79.83;98234.20;1827497;77;21166;-71
2021/03/08 10:21:18;;;;;;;91.72;47.50;;;;;;;0.80;79.59;98237.02;1827370;78;21110;-71
2021/03/08 10:23:44;;;;;;;82.20;40.35;;;;;;;0.87;79.09;98234.84;1827365;77;22044;-71
2021/03/08 10:26:15;;;;;;;82.70;44.35;;;;;;;0.84;78.66;98235.55;1827086;78;21137;-72
2021/03/08 10:28:45;;;;;;;82.00;43.02;;;;;;;0.68;78.90;98244.03;1827285;77;21055;-72
2021/03/08 10:31:29;;;;;;;79.27;41.40;;;;;;;0.73;79.18;98247.41;1827339;78;21475;-71
2021/03/08 10:34:10;;;;;;;75.35;35.80;;;;;;;0.72;79.32;98254.59;1826746;77;21041;-72
2021/03/08 10:36:40;;;;;;;80.65;40.92;;;;;;;0.56;79.46;98258.54;1827247;78;21190;-71
2021/03/08 10:39:12;;;;;;;89.90;44.65;;;;;;;0.33;80.71;98262.69;1826817;77;20993;-72
2021/03/08 10:41:40;;;;;;;83.17;39.98;;;;;;;0.46;80.51;98258.16;1826171;78;21070;-71
2021/03/08 10:44:06;;;;;;;90.70;39.50;;;;;;;0.39;80.94;98263.20;1795625;78;21129;-71
2021/03/08 10:46:37;;;;;;;91.97;36.77;;;;;;;0.34;81.24;98262.99;1826690;78;21157;-71
2021/03/08 10:49:06;;;;;;;65.72;31.80;;;;;;;0.19;81.29;98263.25;1826694;77;21415;-71
2021/03/08 10:51:32;;;;;;;46.23;21.97;;;;;;;-0.11;81.57;98270.84;1826875;78;21169;-71
2021/03/08 10:54:08;;;;;;;26.20;12.05;;;;;;;-0.55;81.40;98277.56;1826643;77;21432;-71
2021/03/08 10:56:37;;;;;;;13.90;7.80;;;;;;;-0.50;80.75;98280.97;1826703;78;21193;-71
2021/03/08 10:59:06;;;;;;;15.55;9.55;;;;;;;-0.76;80.44;98281.73;1826662;77;21002;-72
2021/03/08 11:01:32;;;;;;;13.85;8.00;;;;;;;-0.70;80.98;98282.23;1821978;78;21434;-72
2021/03/08 11:03:58;;;;;;;20.97;9.20;;;;;;;-0.69;80.57;98285.20;1826599;77;20916;-72
2021/03/08 11:06:24;;;;;;;19.70;8.10;;;;;;;-0.51;80.51;98284.14;1826645;78;21561;-72
2021/03/08 11:09:04;;;;;;;17.57;9.23;;;;;;;-0.40;79.62;98282.20;1826714;77;21162;-72
2021/03/08 11:11:35;;;;;;;13.38;6.95;;;;;;;-0.31;80.18;98280.16;1826664;78;21086;-71
2021/03/08 11:14:03;;;;;;;19.00;9.98;;;;;;;-0.18;78.90;98279.33;1826636;77;21401;-72
2021/03/08 11:16:31;;;;;;;82.40;46.00;;;;;;;0.01;79.05;98287.86;1826809;78;21089;-72
2021/03/08 11:19:19;;;;;;;27.22;14.58;;;;;;;0.19;78.17;98283.23;1826736;77;21030;-72
2021/03/08 11:21:46;;;;;;;40.38;17.52;;;;;;;0.24;77.74;98282.91;1826742;78;21189;-71
2021/03/08 11:24:21;;;;;;;21.05;11.90;;;;;;;0.22;77.89;98285.48;1795035;78;21062;-71
2021/03/08 11:27:20;;;;;;;22.25;12.37;;;;;;;0.44;78.04;98286.89;1826552;77;21967;-71
2021/03/08 11:30:10;;;;;;;31.30;14.95;;;;;;;0.66;77.68;98286.62;1813729;77;21102;-71
2021/03/08 11:32:40;;;;;;;91.60;40.17;;;;;;;0.84;77.40;98292.91;1826641;78;21079;-71
2021/03/08 11:35:19;;;;;;;82.15;31.35;;;;;;;1.01;77.17;98287.92;1826618;77;21527;-71
2021/03/08 11:37:47;;;;;;;88.10;39.73;;;;;;;1.19;76.89;98284.55;1797493;78;21087;-72
2021/03/08 11:40:15;;;;;;;38.98;18.35;;;;;;;1.45;76.67;98283.59;1826626;77;21196;-72